sensor_id;sensor_type;location;lat;lon;timestamp;pressure;altitude;pressure_sealevel;temperature;humidity
24013;BME280;12220;50.194;18.948;2023-09-19T00:00:43;101194.79;;;19.80;66.71
24013;BME280;12220;50.194;18.948;2023-09-19T00:03:00;101187.51;;;19.79;66.70
24013;BME280;12220;50.194;18.948;2023-09-19T00:10:13;101185.59;;;19.80;66.77
24013;BME280;12220;50.194;18.948;2023-09-19T00:17:33;101178.00;;;19.82;67.02
24013;BME280;12220;50.194;18.948;2023-09-19T00:19:38;101188.05;;;19.83;67.01
24013;BME280;12220;50.194;18.948;2023-09-19T00:21:50;100492.43;;;15.25;66.63
24013;BME280;12220;50.194;18.948;2023-09-19T00:24:14;100697.84;;;16.99;66.66
24013;BME280;12220;50.194;18.948;2023-09-19T00:26:19;101175.92;;;19.84;66.86
24013;BME280;12220;50.194;18.948;2023-09-19T00:28:21;101175.92;;;19.84;66.95
24013;BME280;12220;50.194;18.948;2023-09-19T00:32:39;101166.71;;;19.83;66.89
24013;BME280;12220;50.194;18.948;2023-09-19T00:34:40;101168.28;;;19.86;66.93
24013;BME280;12220;50.194;18.948;2023-09-19T00:36:55;101170.20;;;19.85;66.90
24013;BME280;12220;50.194;18.948;2023-09-19T00:38:59;101167.42;;;19.85;66.98
24013;BME280;12220;50.194;18.948;2023-09-19T00:41:01;101164.64;;;19.85;67.04
24013;BME280;12220;50.194;18.948;2023-09-19T00:43:22;101160.11;;;19.84;67.04
24013;BME280;12220;50.194;18.948;2023-09-19T00:45:25;101162.88;;;19.84;67.03
24013;BME280;12220;50.194;18.948;2023-09-19T00:47:31;101150.04;;;19.83;67.05
24013;BME280;12220;50.194;18.948;2023-09-19T00:49:32;101153.84;;;19.82;67.05
24013;BME280;12220;50.194;18.948;2023-09-19T00:51:35;101154.70;;;19.83;67.07
24013;BME280;12220;50.194;18.948;2023-09-19T00:53:38;101152.09;;;19.81;67.09
24013;BME280;12220;50.194;18.948;2023-09-19T00:55:46;101146.52;;;19.81;67.16
24013;BME280;12220;50.194;18.948;2023-09-19T00:57:48;101149.47;;;19.80;67.21
24013;BME280;12220;50.194;18.948;2023-09-19T00:59:53;101151.38;;;19.79;67.29
24013;BME280;12220;50.194;18.948;2023-09-19T01:01:56;101144.77;;;19.80;67.35
24013;BME280;12220;50.194;18.948;2023-09-19T01:04:01;101147.42;;;19.82;67.35
24013;BME280;12220;50.194;18.948;2023-09-19T01:06:03;101155.77;;;19.82;67.36
24013;BME280;12220;50.194;18.948;2023-09-19T01:08:05;100666.48;;;17.08;67.20
24013;BME280;12220;50.194;18.948;2023-09-19T01:10:15;101130.11;;;19.88;67.34
24013;BME280;12220;50.194;18.948;2023-09-19T01:12:25;101130.97;;;19.89;67.36
24013;BME280;12220;50.194;18.948;2023-09-19T01:22:11;101116.35;;;20.05;67.50
24013;BME280;12220;50.194;18.948;2023-09-19T01:31:29;101111.52;;;20.07;67.34
24013;BME280;12220;50.194;18.948;2023-09-19T01:35:52;101106.82;;;20.07;67.59
24013;BME280;12220;50.194;18.948;2023-09-19T01:37:58;101106.82;;;20.07;67.70
24013;BME280;12220;50.194;18.948;2023-09-19T01:40:03;101106.49;;;20.10;67.82
24013;BME280;12220;50.194;18.948;2023-09-19T01:42:21;101106.49;;;20.10;67.93
24013;BME280;12220;50.194;18.948;2023-09-19T01:51:46;100134.73;;;14.21;67.96
24013;BME280;12220;50.194;18.948;2023-09-19T01:53:57;101107.59;;;20.17;68.39
24013;BME280;12220;50.194;18.948;2023-09-19T02:00:37;101109.02;;;20.22;68.41
24013;BME280;12220;50.194;18.948;2023-09-19T02:02:46;101108.29;;;20.19;68.48
24013;BME280;12220;50.194;18.948;2023-09-19T02:04:49;101108.29;;;20.19;68.54
24013;BME280;12220;50.194;18.948;2023-09-19T02:06:51;101104.49;;;20.20;68.62
24013;BME280;12220;50.194;18.948;2023-09-19T02:08:54;101110.74;;;20.23;68.68
24013;BME280;12220;50.194;18.948;2023-09-19T02:10:56;101104.15;;;20.24;68.73
24013;BME280;12220;50.194;18.948;2023-09-19T02:12:58;101100.69;;;20.22;68.77
24013;BME280;12220;50.194;18.948;2023-09-19T02:15:05;101098.59;;;20.24;68.82
24013;BME280;12220;50.194;18.948;2023-09-19T02:17:08;101110.74;;;20.23;68.69
24013;BME280;12220;50.194;18.948;2023-09-19T02:19:13;101106.07;;;20.23;68.63
24013;BME280;12220;50.194;18.948;2023-09-19T02:21:14;101103.62;;;20.20;68.46
24013;BME280;12220;50.194;18.948;2023-09-19T02:26:43;100158.18;;;14.25;67.96
24013;BME280;12220;50.194;18.948;2023-09-19T02:38:03;101105.84;;;20.16;68.19
24013;BME280;12220;50.194;18.948;2023-09-19T02:41:09;101102.89;;;20.18;68.18
24013;BME280;12220;50.194;18.948;2023-09-19T02:42:45;101106.73;;;20.17;68.17
24013;BME280;12220;50.194;18.948;2023-09-19T02:44:49;101102.36;;;20.14;68.10
24013;BME280;12220;50.194;18.948;2023-09-19T02:49:18;101101.10;;;20.09;68.13
24013;BME280;12220;50.194;18.948;2023-09-19T02:51:20;101097.62;;;20.07;68.21
24013;BME280;12220;50.194;18.948;2023-09-19T02:53:23;101099.50;;;20.06;68.03
24013;BME280;12220;50.194;18.948;2023-09-19T02:55:44;101093.09;;;20.06;68.26
24013;BME280;12220;50.194;18.948;2023-09-19T02:57:51;101097.91;;;20.03;68.31
24013;BME280;12220;50.194;18.948;2023-09-19T02:59:55;101095.30;;;20.02;68.34
24013;BME280;12220;50.194;18.948;2023-09-19T03:01:57;101098.24;;;20.00;68.35
24013;BME280;12220;50.194;18.948;2023-09-19T03:04:00;101093.73;;;19.99;68.35
24013;BME280;12220;50.194;18.948;2023-09-19T03:06:01;101094.77;;;19.98;68.42
24013;BME280;12220;50.194;18.948;2023-09-19T03:08:05;101104.12;;;19.97;68.49
24013;BME280;12220;50.194;18.948;2023-09-19T03:10:08;101097.71;;;19.97;68.59
24013;BME280;12220;50.194;18.948;2023-09-19T03:12:15;101096.64;;;19.98;68.75
24013;BME280;12220;50.194;18.948;2023-09-19T03:14:17;101100.48;;;19.97;68.86
24013;BME280;12220;50.194;18.948;2023-09-19T03:16:21;101099.42;;;19.98;68.95
24013;BME280;12220;50.194;18.948;2023-09-19T03:18:26;101104.12;;;19.97;68.99
24013;BME280;12220;50.194;18.948;2023-09-19T03:20:29;101087.62;;;19.96;69.04
24013;BME280;12220;50.194;18.948;2023-09-19T03:22:31;101085.16;;;19.93;69.21
24013;BME280;12220;50.194;18.948;2023-09-19T03:24:40;101085.32;;;19.91;69.32
24013;BME280;12220;50.194;18.948;2023-09-19T03:26:46;101089.13;;;19.90;69.47
24013;BME280;12220;50.194;18.948;2023-09-19T03:28:47;101096.59;;;19.90;69.57
24013;BME280;12220;50.194;18.948;2023-09-19T03:30:59;101088.26;;;19.90;69.71
24013;BME280;12220;50.194;18.948;2023-09-19T03:33:01;101085.32;;;19.91;69.83
24013;BME280;12220;50.194;18.948;2023-09-19T03:37:37;101085.85;;;19.95;70.08
24013;BME280;12220;50.194;18.948;2023-09-19T03:39:38;101081.18;;;19.95;70.22
24013;BME280;12220;50.194;18.948;2023-09-19T03:41:48;101076.66;;;19.94;70.24
24013;BME280;12220;50.194;18.948;2023-09-19T03:43:50;101075.79;;;19.94;70.36
24013;BME280;12220;50.194;18.948;2023-09-19T03:45:55;101082.38;;;19.93;70.54
24013;BME280;12220;50.194;18.948;2023-09-19T03:47:56;101077.15;;;19.90;70.60
24013;BME280;12220;50.194;18.948;2023-09-19T03:50:04;101072.61;;;19.89;70.72
24013;BME280;12220;50.194;18.948;2023-09-19T03:52:06;101077.30;;;19.88;70.85
24013;BME280;12220;50.194;18.948;2023-09-19T03:54:07;101080.95;;;19.89;71.02
24013;BME280;12220;50.194;18.948;2023-09-19T03:56:09;101088.26;;;19.90;71.22
24013;BME280;12220;50.194;18.948;2023-09-19T03:58:18;101080.95;;;19.89;71.35
24013;BME280;12220;50.194;18.948;2023-09-19T04:00:21;101084.75;;;19.88;71.51
24013;BME280;12220;50.194;18.948;2023-09-19T04:07:36;101084.84;;;19.96;72.22
24013;BME280;12220;50.194;18.948;2023-09-19T04:09:37;101082.38;;;19.93;72.36
24013;BME280;12220;50.194;18.948;2023-09-19T04:11:44;101089.85;;;19.92;72.42
24013;BME280;12220;50.194;18.948;2023-09-19T04:13:46;101077.84;;;19.92;72.53
24013;BME280;12220;50.194;18.948;2023-09-19T04:15:48;101084.45;;;19.91;72.65
24013;BME280;12220;50.194;18.948;2023-09-19T04:20:19;101072.28;;;19.92;72.98
24013;BME280;12220;50.194;18.948;2023-09-19T04:22:26;101070.39;;;19.92;73.11
24013;BME280;12220;50.194;18.948;2023-09-19T04:27:07;101072.45;;;19.90;73.39
24013;BME280;12220;50.194;18.948;2023-09-19T04:29:10;101078.90;;;19.91;73.53
24013;BME280;12220;50.194;18.948;2023-09-19T04:31:21;101066.89;;;19.90;73.64
24013;BME280;12220;50.194;18.948;2023-09-19T04:33:23;101061.49;;;19.89;73.81
24013;BME280;12220;50.194;18.948;2023-09-19T04:35:26;101064.44;;;19.87;74.00
24013;BME280;12220;50.194;18.948;2023-09-19T04:37:32;101073.95;;;19.84;74.12
24013;BME280;12220;50.194;18.948;2023-09-19T04:39:34;101066.68;;;19.83;74.31
24013;BME280;12220;50.194;18.948;2023-09-19T04:41:35;101066.97;;;19.80;74.58
24013;BME280;12220;50.194;18.948;2023-09-19T04:43:41;101062.59;;;19.78;74.74
24013;BME280;12220;50.194;18.948;2023-09-19T04:57:59;101083.32;;;20.01;76.86
24013;BME280;12220;50.194;18.948;2023-09-19T05:00:01;101076.56;;;20.04;77.02
24013;BME280;12220;50.194;18.948;2023-09-19T05:02:04;101078.16;;;20.07;77.16
24013;BME280;12220;50.194;18.948;2023-09-19T05:04:07;101069.33;;;20.11;77.29
24013;BME280;12220;50.194;18.948;2023-09-19T05:06:09;101080.29;;;20.13;77.33
24013;BME280;12220;50.194;18.948;2023-09-19T05:08:10;100840.73;;;18.76;77.61
24013;BME280;12220;50.194;18.948;2023-09-19T05:10:19;101082.73;;;20.16;77.71
24013;BME280;12220;50.194;18.948;2023-09-19T05:12:21;101083.43;;;20.18;77.81
24013;BME280;12220;50.194;18.948;2023-09-19T05:14:22;101089.72;;;20.20;78.06
24013;BME280;12220;50.194;18.948;2023-09-19T05:16:24;101092.51;;;20.20;79.06
24013;BME280;12220;50.194;18.948;2023-09-19T05:18:34;101098.23;;;20.18;79.59
24013;BME280;12220;50.194;18.948;2023-09-19T05:20:35;101112.13;;;20.18;79.33
24013;BME280;12220;50.194;18.948;2023-09-19T05:22:40;101111.23;;;20.18;79.23
24013;BME280;12220;50.194;18.948;2023-09-19T05:24:42;101115.78;;;20.19;79.20
24013;BME280;12220;50.194;18.948;2023-09-19T05:26:49;101111.07;;;20.19;79.27
24013;BME280;12220;50.194;18.948;2023-09-19T05:28:50;101120.30;;;20.20;79.33
24013;BME280;12220;50.194;18.948;2023-09-19T05:30:55;101109.02;;;20.22;79.32
24013;BME280;12220;50.194;18.948;2023-09-19T05:32:57;101122.60;;;20.25;79.29
24013;BME280;12220;50.194;18.948;2023-09-19T05:35:04;101053.56;;;19.94;79.20
24013;BME280;12220;50.194;18.948;2023-09-19T05:37:10;101108.69;;;20.25;79.09
24013;BME280;12220;50.194;18.948;2023-09-19T05:39:11;101117.73;;;20.27;79.02
24013;BME280;12220;50.194;18.948;2023-09-19T05:41:13;101120.68;;;20.25;79.00
24013;BME280;12220;50.194;18.948;2023-09-19T05:43:19;101119.83;;;20.25;78.90
24013;BME280;12220;50.194;18.948;2023-09-19T05:45:20;101124.65;;;20.23;78.89
24013;BME280;12220;50.194;18.948;2023-09-19T05:47:26;101127.59;;;20.21;78.78
24013;BME280;12220;50.194;18.948;2023-09-19T05:49:28;101127.05;;;20.17;78.73
24013;BME280;12220;50.194;18.948;2023-09-19T05:51:34;101131.03;;;20.15;78.60
24013;BME280;12220;50.194;18.948;2023-09-19T05:53:36;101132.21;;;20.12;78.62
24013;BME280;12220;50.194;18.948;2023-09-19T05:55:38;101136.05;;;20.11;78.72
24013;BME280;12220;50.194;18.948;2023-09-19T05:57:39;101139.45;;;20.05;78.94
24013;BME280;12220;50.194;18.948;2023-09-19T05:59:49;101137.32;;;19.99;79.22
24013;BME280;12220;50.194;18.948;2023-09-19T06:01:51;101140.58;;;19.94;79.01
24013;BME280;12220;50.194;18.948;2023-09-19T06:03:53;101141.77;;;19.92;79.06
24013;BME280;12220;50.194;18.948;2023-09-19T06:05:54;101137.39;;;19.89;79.02
24013;BME280;12220;50.194;18.948;2023-09-19T06:08:05;101145.89;;;19.88;79.25
24013;BME280;12220;50.194;18.948;2023-09-19T06:10:12;101133.38;;;19.83;79.31
24013;BME280;12220;50.194;18.948;2023-09-19T06:12:15;101147.27;;;19.83;79.33
24013;BME280;12220;50.194;18.948;2023-09-19T06:14:18;101145.34;;;19.84;79.33
24013;BME280;12220;50.194;18.948;2023-09-19T06:16:20;101150.04;;;19.83;79.41
24013;BME280;12220;50.194;18.948;2023-09-19T06:18:21;101155.59;;;19.83;79.37
24013;BME280;12220;50.194;18.948;2023-09-19T06:20:28;101159.41;;;19.82;79.98
24013;BME280;12220;50.194;18.948;2023-09-19T06:22:30;101164.23;;;19.80;79.79
24013;BME280;12220;50.194;18.948;2023-09-19T06:24:35;101165.41;;;19.78;79.92
24013;BME280;12220;50.194;18.948;2023-09-19T06:26:36;101171.98;;;19.77;79.79
24013;BME280;12220;50.194;18.948;2023-09-19T06:28:37;101167.29;;;19.77;79.73
24013;BME280;12220;50.194;18.948;2023-09-19T06:30:39;101170.08;;;19.77;79.84
24013;BME280;12220;50.194;18.948;2023-09-19T06:32:58;101172.85;;;19.77;79.72
24013;BME280;12220;50.194;18.948;2023-09-19T06:34:59;101176.68;;;19.76;79.79
24013;BME280;12220;50.194;18.948;2023-09-19T06:37:01;101178.41;;;19.77;79.73
24013;BME280;12220;50.194;18.948;2023-09-19T06:39:04;101178.41;;;19.77;79.75
24013;BME280;12220;50.194;18.948;2023-09-19T06:41:07;101185.76;;;19.78;79.77
24013;BME280;12220;50.194;18.948;2023-09-19T06:43:10;101192.17;;;19.79;79.82
24013;BME280;12220;50.194;18.948;2023-09-19T06:45:13;101184.85;;;19.78;79.99
24013;BME280;12220;50.194;18.948;2023-09-19T06:47:19;101187.51;;;19.79;79.95
24013;BME280;12220;50.194;18.948;2023-09-19T06:49:22;101188.38;;;19.80;79.93
24013;BME280;12220;50.194;18.948;2023-09-19T06:51:23;101199.48;;;19.80;80.09
24013;BME280;12220;50.194;18.948;2023-09-19T06:53:25;101190.29;;;19.79;80.10
24013;BME280;12220;50.194;18.948;2023-09-19T06:55:26;101202.27;;;19.80;80.23
24013;BME280;12220;50.194;18.948;2023-09-19T06:57:35;101200.35;;;19.80;80.33
24013;BME280;12220;50.194;18.948;2023-09-19T06:59:36;101209.74;;;19.79;80.34
24013;BME280;12220;50.194;18.948;2023-09-19T07:01:40;101213.23;;;19.81;80.43
24013;BME280;12220;50.194;18.948;2023-09-19T07:03:45;101217.91;;;19.81;80.59
24013;BME280;12220;50.194;18.948;2023-09-19T07:08:24;101262.06;;;19.84;80.83
24013;BME280;12220;50.194;18.948;2023-09-19T07:10:44;101240.43;;;19.78;80.71
24013;BME280;12220;50.194;18.948;2023-09-19T07:13:22;101244.21;;;19.87;80.84
24013;BME280;12220;50.194;18.948;2023-09-19T07:15:32;101252.38;;;19.88;80.81
24013;BME280;12220;50.194;18.948;2023-09-19T07:32:20;101273.67;;;19.97;80.43
24013;BME280;12220;50.194;18.948;2023-09-19T07:37:15;101290.78;;;20.02;80.18
24013;BME280;12220;50.194;18.948;2023-09-19T07:46:48;101313.02;;;20.02;79.57
24013;BME280;12220;50.194;18.948;2023-09-19T07:48:53;101323.08;;;20.03;79.55
24013;BME280;12220;50.194;18.948;2023-09-19T08:11:37;101363.05;;;20.02;79.40
24013;BME280;12220;50.194;18.948;2023-09-19T08:13:18;101367.01;;;20.00;79.49
24013;BME280;12220;50.194;18.948;2023-09-19T08:15:22;101375.50;;;19.98;79.65
24013;BME280;12220;50.194;18.948;2023-09-19T08:17:23;101379.45;;;19.96;79.66
24013;BME280;12220;50.194;18.948;2023-09-19T08:19:25;101375.07;;;19.93;79.72
24013;BME280;12220;50.194;18.948;2023-09-19T08:29:03;101401.02;;;19.84;80.24
24013;BME280;12220;50.194;18.948;2023-09-19T08:31:12;101391.07;;;19.81;80.38
24013;BME280;12220;50.194;18.948;2023-09-19T08:33:15;101391.23;;;19.80;80.38
24013;BME280;12220;50.194;18.948;2023-09-19T08:35:16;101395.14;;;19.77;80.79
24013;BME280;12220;50.194;18.948;2023-09-19T08:37:18;101389.59;;;19.77;80.85
24013;BME280;12220;50.194;18.948;2023-09-19T08:44:03;101398.70;;;19.79;80.89
24013;BME280;12220;50.194;18.948;2023-09-19T08:46:18;101396.79;;;19.80;80.98
24013;BME280;12220;50.194;18.948;2023-09-19T08:48:26;101399.71;;;19.78;81.12
24013;BME280;12220;50.194;18.948;2023-09-19T08:50:30;101404.26;;;19.79;81.05
24013;BME280;12220;50.194;18.948;2023-09-19T08:52:40;101406.14;;;19.79;81.06
24013;BME280;12220;50.194;18.948;2023-09-19T08:54:43;101402.49;;;19.78;81.07
24013;BME280;12220;50.194;18.948;2023-09-19T08:56:56;101406.26;;;19.77;81.06
24013;BME280;12220;50.194;18.948;2023-09-19T08:59:17;101404.38;;;19.78;81.29
24013;BME280;12220;50.194;18.948;2023-09-19T09:01:27;101412.71;;;19.78;81.24
24013;BME280;12220;50.194;18.948;2023-09-19T09:03:32;101421.20;;;19.76;81.37
24013;BME280;12220;50.194;18.948;2023-09-19T09:05:36;101409.20;;;19.76;81.35
24013;BME280;12220;50.194;18.948;2023-09-19T09:07:43;101410.83;;;19.78;81.38
24013;BME280;12220;50.194;18.948;2023-09-19T09:09:55;101417.10;;;19.80;81.33
24013;BME280;12220;50.194;18.948;2023-09-19T09:11:57;101419.88;;;19.80;81.32
24013;BME280;12220;50.194;18.948;2023-09-19T09:14:00;101416.09;;;19.81;81.27
24013;BME280;12220;50.194;18.948;2023-09-19T09:16:01;101412.13;;;19.84;81.32
24013;BME280;12220;50.194;18.948;2023-09-19T09:18:19;101421.45;;;19.93;81.32
24013;BME280;12220;50.194;18.948;2023-09-19T09:20:31;101416.61;;;19.95;81.38
24013;BME280;12220;50.194;18.948;2023-09-19T09:23:02;101407.09;;;19.97;81.65
24013;BME280;12220;50.194;18.948;2023-09-19T09:29:46;101406.91;;;20.09;81.25
24013;BME280;12220;50.194;18.948;2023-09-19T09:32:15;101412.86;;;20.14;81.18
24013;BME280;12220;50.194;18.948;2023-09-19T09:34:06;101420.77;;;20.18;81.10
24013;BME280;12220;50.194;18.948;2023-09-19T09:36:11;101426.33;;;20.18;80.89
24013;BME280;12220;50.194;18.948;2023-09-19T09:48:12;101431.58;;;20.22;80.61
24013;BME280;12220;50.194;18.948;2023-09-19T10:05:18;101439.41;;;20.36;79.86
24013;BME280;12220;50.194;18.948;2023-09-19T10:07:33;101439.25;;;20.37;79.85
24013;BME280;12220;50.194;18.948;2023-09-19T10:09:45;101441.88;;;20.39;79.84
24013;BME280;12220;50.194;18.948;2023-09-19T10:14:17;101231.66;;;19.17;79.58
24013;BME280;12220;50.194;18.948;2023-09-19T10:16:32;101447.84;;;20.44;79.63
24013;BME280;12220;50.194;18.948;2023-09-19T10:18:36;101454.45;;;20.43;79.48
24013;BME280;12220;50.194;18.948;2023-09-19T10:20:40;101452.70;;;20.42;79.28
24013;BME280;12220;50.194;18.948;2023-09-19T10:22:48;101450.94;;;20.41;79.32
24013;BME280;12220;50.194;18.948;2023-09-19T10:24:59;101455.47;;;20.42;79.34
24013;BME280;12220;50.194;18.948;2023-09-19T10:27:08;101460.02;;;20.43;79.31
24013;BME280;12220;50.194;18.948;2023-09-19T10:29:10;101461.90;;;20.43;79.30
24013;BME280;12220;50.194;18.948;2023-09-19T10:31:19;101468.36;;;20.43;79.23
24013;BME280;12220;50.194;18.948;2023-09-19T10:33:24;101469.38;;;20.42;79.28
24013;BME280;12220;50.194;18.948;2023-09-19T10:35:32;101467.46;;;20.43;79.11
24013;BME280;12220;50.194;18.948;2023-09-19T10:37:45;101471.30;;;20.42;79.15
24013;BME280;12220;50.194;18.948;2023-09-19T10:39:53;101475.09;;;20.41;79.41
24013;BME280;12220;50.194;18.948;2023-09-19T10:42:02;101481.69;;;20.40;79.37
24013;BME280;12220;50.194;18.948;2023-09-19T10:44:06;101471.58;;;20.38;79.38
24013;BME280;12220;50.194;18.948;2023-09-19T10:46:08;101478.75;;;20.41;79.42
24013;BME280;12220;50.194;18.948;2023-09-19T10:48:23;101481.38;;;20.43;79.50
24013;BME280;12220;50.194;18.948;2023-09-19T10:50:30;101480.34;;;20.44;79.56
24013;BME280;12220;50.194;18.948;2023-09-19T10:52:33;101487.68;;;20.45;79.58
24013;BME280;12220;50.194;18.948;2023-09-19T10:54:45;101481.80;;;20.48;79.59
24013;BME280;12220;50.194;18.948;2023-09-19T10:56:53;101483.69;;;20.47;79.68
24013;BME280;12220;50.194;18.948;2023-09-19T10:59:06;101489.41;;;20.46;79.82
24013;BME280;12220;50.194;18.948;2023-09-19T11:01:10;101494.57;;;20.41;79.82
24013;BME280;12220;50.194;18.948;2023-09-19T11:03:19;101490.19;;;20.38;79.99
24013;BME280;12220;50.194;18.948;2023-09-19T11:05:27;101495.35;;;20.33;79.92
24013;BME280;12220;50.194;18.948;2023-09-19T11:07:30;101495.47;;;20.31;79.91
24013;BME280;12220;50.194;18.948;2023-09-19T11:09:52;101504.12;;;20.28;80.05
24013;BME280;12220;50.194;18.948;2023-09-19T11:12:06;101507.64;;;20.30;80.16
24013;BME280;12220;50.194;18.948;2023-09-19T11:16:24;101508.52;;;20.31;80.22
24013;BME280;12220;50.194;18.948;2023-09-19T11:20:39;101507.80;;;20.29;80.39
24013;BME280;12220;50.194;18.948;2023-09-19T11:27:32;101508.55;;;20.21;80.76
24013;BME280;12220;50.194;18.948;2023-09-19T11:29:36;101511.48;;;20.19;80.89
24013;BME280;12220;50.194;18.948;2023-09-19T11:31:43;101512.68;;;20.17;81.07
24013;BME280;12220;50.194;18.948;2023-09-19T11:33:45;101514.88;;;20.13;80.93
24013;BME280;12220;50.194;18.948;2023-09-19T11:38:08;101514.01;;;20.13;81.25
24013;BME280;12220;50.194;18.948;2023-09-19T11:40:16;101512.41;;;20.10;81.22
24013;BME280;12220;50.194;18.948;2023-09-19T11:44:32;101513.70;;;20.16;81.43
24013;BME280;12220;50.194;18.948;2023-09-19T11:51:20;101510.89;;;20.26;81.33
24013;BME280;12220;50.194;18.948;2023-09-19T11:53:32;101519.95;;;20.28;81.23
24013;BME280;12220;50.194;18.948;2023-09-19T11:55:37;101511.60;;;20.28;81.02
24013;BME280;12220;50.194;18.948;2023-09-19T11:57:39;101512.63;;;20.27;80.98
24013;BME280;12220;50.194;18.948;2023-09-19T11:59:42;101514.70;;;20.25;81.08
24013;BME280;12220;50.194;18.948;2023-09-19T12:01:51;101340.09;;;19.06;80.61
24013;BME280;12220;50.194;18.948;2023-09-19T12:04:05;101518.65;;;20.22;80.70
24013;BME280;12220;50.194;18.948;2023-09-19T12:06:12;101511.48;;;20.19;80.58
24013;BME280;12220;50.194;18.948;2023-09-19T12:08:17;101513.24;;;20.20;80.74
24013;BME280;12220;50.194;18.948;2023-09-19T12:10:22;101514.70;;;20.25;80.87
24013;BME280;12220;50.194;18.948;2023-09-19T12:12:26;101520.97;;;20.27;80.88
24013;BME280;12220;50.194;18.948;2023-09-19T12:14:48;101528.14;;;20.29;80.88
24013;BME280;12220;50.194;18.948;2023-09-19T12:16:56;101524.18;;;20.32;80.77
24013;BME280;12220;50.194;18.948;2023-09-19T12:21:23;101522.70;;;20.37;80.56
24013;BME280;12220;50.194;18.948;2023-09-19T12:23:25;101526.93;;;20.42;80.61
24013;BME280;12220;50.194;18.948;2023-09-19T12:25:30;100697.11;;;15.60;80.07
24013;BME280;12220;50.194;18.948;2023-09-19T12:29:49;101523.92;;;20.53;80.54
24013;BME280;12220;50.194;18.948;2023-09-19T12:31:54;101525.53;;;20.55;80.52
24013;BME280;12220;50.194;18.948;2023-09-19T12:33:58;101525.07;;;20.60;80.38
24013;BME280;12220;50.194;18.948;2023-09-19T12:38:26;101523.57;;;20.66;80.17
24013;BME280;12220;50.194;18.948;2023-09-19T12:40:36;101526.08;;;20.69;80.00
24013;BME280;12220;50.194;18.948;2023-09-19T12:42:39;101529.29;;;20.74;79.97
24013;BME280;12220;50.194;18.948;2023-09-19T12:44:44;101522.07;;;20.81;79.96
24013;BME280;12220;50.194;18.948;2023-09-19T12:46:45;101522.45;;;20.86;79.85
24013;BME280;12220;50.194;18.948;2023-09-19T12:48:47;101525.66;;;20.92;79.58
24013;BME280;12220;50.194;18.948;2023-09-19T12:53:24;101532.91;;;21.02;79.39
24013;BME280;12220;50.194;18.948;2023-09-19T12:55:24;101525.13;;;21.06;79.17
24013;BME280;12220;50.194;18.948;2023-09-19T12:57:27;101528.62;;;21.08;78.91
24013;BME280;12220;50.194;18.948;2023-09-19T12:59:32;101525.35;;;21.13;78.77
24013;BME280;12220;50.194;18.948;2023-09-19T13:01:33;101527.82;;;21.16;78.56
24013;BME280;12220;50.194;18.948;2023-09-19T13:03:44;101529.09;;;21.21;78.49
24013;BME280;12220;50.194;18.948;2023-09-19T13:05:59;101523.08;;;21.26;78.24
24013;BME280;12220;50.194;18.948;2023-09-19T13:10:17;101516.21;;;21.38;77.95
24013;BME280;12220;50.194;18.948;2023-09-19T13:14:39;101513.35;;;21.48;76.79
24013;BME280;12220;50.194;18.948;2023-09-19T13:19:06;101514.70;;;21.62;76.61
24013;BME280;12220;50.194;18.948;2023-09-19T13:21:13;101519.50;;;21.70;76.49
24013;BME280;12220;50.194;18.948;2023-09-19T13:23:27;101526.87;;;21.79;76.15
24013;BME280;12220;50.194;18.948;2023-09-19T13:25:29;101526.05;;;21.87;75.86
24013;BME280;12220;50.194;18.948;2023-09-19T13:27:32;101513.95;;;21.96;75.63
24013;BME280;12220;50.194;18.948;2023-09-19T13:29:34;101521.64;;;22.02;74.89
24013;BME280;12220;50.194;18.948;2023-09-19T13:31:35;101516.59;;;22.06;74.38
24013;BME280;12220;50.194;18.948;2023-09-19T13:33:47;101516.43;;;22.07;73.80
24013;BME280;12220;50.194;18.948;2023-09-19T13:35:48;101519.21;;;22.07;73.64
24013;BME280;12220;50.194;18.948;2023-09-19T13:37:49;101520.27;;;22.06;73.71
24013;BME280;12220;50.194;18.948;2023-09-19T13:39:52;101517.48;;;22.06;73.58
24013;BME280;12220;50.194;18.948;2023-09-19T13:41:54;101522.17;;;22.06;73.38
24013;BME280;12220;50.194;18.948;2023-09-19T13:43:59;101526.88;;;22.05;73.35
24013;BME280;12220;50.194;18.948;2023-09-19T13:46:00;101524.09;;;22.05;73.42
24013;BME280;12220;50.194;18.948;2023-09-19T13:50:12;101523.40;;;22.03;72.80
24013;BME280;12220;50.194;18.948;2023-09-19T13:52:13;101537.34;;;22.03;72.75
24013;BME280;12220;50.194;18.948;2023-09-19T13:54:15;101541.66;;;21.98;72.97
24013;BME280;12220;50.194;18.948;2023-09-19T13:56:16;101553.56;;;21.82;73.87
24013;BME280;12220;50.194;18.948;2023-09-19T13:58:17;101548.56;;;21.67;73.70
24013;BME280;12220;50.194;18.948;2023-09-19T14:00:28;101549.29;;;21.51;74.14
24013;BME280;12220;50.194;18.948;2023-09-19T14:02:29;101555.70;;;21.34;75.06
24013;BME280;12220;50.194;18.948;2023-09-19T14:04:32;101544.09;;;21.20;75.44
24013;BME280;12220;50.194;18.948;2023-09-19T14:06:35;101546.22;;;21.09;76.15
24013;BME280;12220;50.194;18.948;2023-09-19T14:08:44;101548.48;;;20.95;76.71
24013;BME280;12220;50.194;18.948;2023-09-19T14:10:52;101551.35;;;20.85;77.17
24013;BME280;12220;50.194;18.948;2023-09-19T14:12:55;101549.90;;;20.81;77.43
24013;BME280;12220;50.194;18.948;2023-09-19T14:15:00;101551.94;;;20.79;77.90
24013;BME280;12220;50.194;18.948;2023-09-19T14:17:03;101537.48;;;20.76;78.13
24013;BME280;12220;50.194;18.948;2023-09-19T14:19:05;101535.00;;;20.72;78.23